SGAS/ASU METAR and TAF weather

Enter ICAO airport designator
Station Type Date Time Source
SGAS METAR 2019/05/27 10:00 UTC NOAA

SGAS 271000Z 06007KT 9999 -TSRA BKN023 FEW040CB BKN070 20/18 Q1008


Station Type Date Time Source
SGAS Decoded METAR 2019/05/27 10:00 UTC NOAA

Asuncion / Aeropuerto, Paraguay (SGAS) 25-16S 057-38W 101M
May 27, 2019 - 06:00 AM EDT / 2019.05.27 1000 UTC
Wind: from the ENE (060 degrees) at 8 MPH (7 KT):0
Visibility: greater than 7 mile(s):0
Sky conditions: mostly cloudy
Weather: light rain with thunder; Cumulonimbus clouds observed
Temperature: 68 F (20 C)
Dew Point: 64 F (18 C)
Relative Humidity: 88%
Pressure (altimeter): 29.77 in. Hg (1008 hPa)
ob: SGAS 271000Z 06007KT 9999 -TSRA BKN023 FEW040CB BKN070 20/18 Q1008
cycle: 10

Station Type Date Time Source
SGAS TAF 2019/05/27 12:46 UTC NOAA

TAF SGAS 271000Z 2712/2812 07005KT 9999 BKN030 TX24/2719Z TN18/2709Z
BECMG 2712/2715 7000 RA BKN020
BECMG 2716/2718 04009KT 9999 SCT020 BKN033 PROB30 2719/2721 7000 TSRA BKN017 FEW040CB
BECMG 2722/2800 9999 BKN020 PROB40 2800/2802 VRB05KT 9000 -RA SCT020 BKN030
BECMG 2804/2807 9999 VCTS BKN027 FEW040CB PROB40 2807/2809 7000 TSRA BKN017 FEW040CB

Example: see airport list